createdAt,value
2023-01-27T00:00:52.670Z,63.09
2023-01-27T00:01:52.651Z,63.20
2023-01-27T00:02:52.831Z,61.61
2023-01-27T00:03:52.636Z,65.77
2023-01-27T00:04:52.607Z,64.66
2023-01-27T00:05:52.580Z,61.41
2023-01-27T00:06:52.561Z,61.39
2023-01-27T00:07:52.541Z,65.22
2023-01-27T00:08:52.529Z,65.12
2023-01-27T00:09:52.518Z,62.52
2023-01-27T00:10:52.496Z,64.04
2023-01-27T00:11:52.476Z,64.54
2023-01-27T00:12:52.450Z,64.72
2023-01-27T00:13:52.436Z,63.50
2023-01-27T00:14:52.411Z,65.17
2023-01-27T00:15:52.407Z,65.37
2023-01-27T00:16:52.366Z,65.25
2023-01-27T00:17:52.377Z,65.38
2023-01-27T00:18:52.324Z,65.37
2023-01-27T00:19:52.303Z,62.91
2023-01-27T00:20:52.304Z,63.77
2023-01-27T00:21:52.267Z,62.15
2023-01-27T00:22:52.250Z,65.08
2023-01-27T00:23:52.299Z,62.15
2023-01-27T00:24:52.204Z,65.50
2023-01-27T00:25:52.173Z,63.50
2023-01-27T00:26:52.158Z,65.81
2023-01-27T00:27:52.138Z,65.72
2023-01-27T00:28:52.120Z,63.71
2023-01-27T00:29:52.072Z,62.58
2023-01-27T00:30:52.194Z,64.66
2023-01-27T00:31:52.107Z,64.73
2023-01-27T00:32:51.999Z,64.97
2023-01-27T00:33:51.977Z,64.76
2023-01-27T00:34:51.965Z,64.16
2023-01-27T00:35:51.951Z,66.72
2023-01-27T00:36:51.925Z,64.53
2023-01-27T00:37:51.903Z,66.77
2023-01-27T00:38:51.885Z,61.87
2023-01-27T00:39:51.864Z,65.26
2023-01-27T00:40:51.843Z,65.54
2023-01-27T00:41:51.810Z,63.28
2023-01-27T00:42:51.787Z,64.97
2023-01-27T00:43:51.750Z,67.66
2023-01-27T00:44:51.720Z,65.99
2023-01-27T00:45:51.694Z,67.32
2023-01-27T00:46:51.705Z,65.96
2023-01-27T00:47:51.660Z,63.35
2023-01-27T00:48:51.626Z,67.69
2023-01-27T00:49:51.610Z,66.22
2023-01-27T00:50:51.584Z,66.87
2023-01-27T00:51:51.565Z,65.07
2023-01-27T00:52:51.532Z,64.40
2023-01-27T06:58:46.288Z,88.87
2023-01-27T06:59:46.263Z,94.79
2023-01-27T07:00:46.253Z,97.15
2023-01-27T07:01:46.265Z,100.95
2023-01-27T07:02:46.249Z,103.26
2023-01-27T07:03:46.195Z,108.99
2023-01-27T07:06:46.154Z,123.71
2023-01-27T07:07:46.108Z,129.45
2023-01-27T07:08:46.103Z,129.80
2023-01-27T07:09:52.425Z,130.84
2023-01-27T07:10:47.059Z,130.18
2023-01-27T07:11:46.027Z,132.18
2023-01-27T07:12:46.018Z,139.06
2023-01-27T07:13:45.971Z,147.31
2023-01-27T07:14:45.945Z,160.95
2023-01-27T07:15:45.919Z,170.81
2023-01-27T07:16:45.910Z,176.32
2023-01-27T07:17:45.867Z,190.82
2023-01-27T07:18:45.840Z,218.05
2023-01-27T07:19:45.826Z,250.00
2023-01-27T07:20:45.788Z,248.90
2023-01-27T07:21:45.847Z,243.15
2023-01-27T07:22:45.782Z,245.59
2023-01-27T07:23:45.720Z,242.57
2023-01-27T07:24:45.712Z,247.29
2023-01-27T07:25:45.684Z,247.26
2023-01-27T07:26:45.683Z,247.62
2023-01-27T07:27:45.722Z,246.06
2023-01-27T07:28:45.654Z,250.00
2023-01-27T07:29:45.635Z,249.12
2023-01-27T07:30:45.649Z,248.93
2023-01-27T07:31:46.356Z,247.45
2023-01-27T07:32:45.687Z,248.58
2023-01-27T07:33:45.557Z,250.00
2023-01-27T07:34:45.530Z,247.48
2023-01-27T07:35:45.554Z,249.33
2023-01-27T07:36:45.548Z,249.37
2023-01-27T07:37:45.478Z,248.42
2023-01-27T07:38:45.429Z,250.00
2023-01-27T07:39:45.644Z,250.00
2023-01-27T07:40:45.825Z,248.57
2023-01-27T07:41:45.367Z,250.00
2023-01-27T07:42:45.358Z,250.00
2023-01-27T07:43:45.341Z,248.56
2023-01-27T07:44:45.308Z,244.81
2023-01-27T07:45:45.361Z,243.58
2023-01-27T07:46:45.300Z,241.39
2023-01-27T07:47:45.290Z,241.92
2023-01-27T07:48:45.238Z,230.61
2023-01-27T07:49:45.209Z,228.42
2023-01-27T07:50:45.180Z,223.08
2023-01-27T07:51:45.159Z,208.13
2023-01-27T07:52:45.163Z,206.47
2023-01-27T07:53:45.183Z,195.12
2023-01-27T07:54:45.085Z,196.17
2023-01-27T07:55:45.078Z,195.36
2023-01-27T07:56:45.062Z,193.09
2023-01-27T07:57:45.044Z,178.09
2023-01-27T07:58:45.091Z,180.14
2023-01-27T07:59:45.024Z,179.91
2023-01-27T08:00:45.114Z,175.69
2023-01-27T08:01:47.176Z,178.99
2023-01-27T08:02:44.955Z,179.53
2023-01-27T08:03:44.932Z,169.47
2023-01-27T08:04:52.923Z,161.72
2023-01-27T08:05:45.915Z,161.95
2023-01-27T08:06:44.894Z,162.36
2023-01-27T08:07:44.868Z,163.39
2023-01-27T08:08:44.861Z,161.05
2023-01-27T08:09:44.838Z,152.22
2023-01-27T08:10:44.832Z,146.32
2023-01-27T08:11:44.832Z,147.26
2023-01-27T08:12:44.829Z,149.56
2023-01-27T08:13:44.819Z,148.49
2023-01-27T08:14:44.779Z,148.53
2023-01-27T08:15:44.806Z,140.48
2023-01-27T08:16:44.786Z,134.29
2023-01-27T08:17:44.765Z,136.77
2023-01-27T08:18:44.740Z,134.54
2023-01-27T08:19:44.739Z,133.00
2023-01-27T08:20:46.121Z,130.23
2023-01-27T08:21:44.717Z,121.05
2023-01-27T08:22:44.713Z,126.07
2023-01-27T08:23:44.697Z,122.25
2023-01-27T08:24:44.684Z,128.23
2023-01-27T08:25:44.667Z,121.37
2023-01-27T08:26:44.716Z,118.44
2023-01-27T08:59:44.873Z,37.77
2023-01-27T09:09:44.222Z,114.86
2023-01-27T09:10:44.211Z,114.87
2023-01-27T09:11:44.218Z,123.92
2023-01-27T09:12:44.216Z,115.70
2023-01-27T09:13:44.210Z,113.00
2023-01-27T09:14:44.251Z,110.58
2023-01-27T09:15:52.643Z,96.65
2023-01-27T09:16:44.216Z,79.94
2023-01-27T14:37:38.649Z,115.40
2023-01-27T14:38:38.640Z,114.74
2023-01-27T14:39:38.609Z,114.49
2023-01-27T14:40:38.593Z,113.83
2023-01-27T14:41:38.582Z,112.53
2023-01-27T14:42:38.550Z,113.96
2023-01-27T14:43:38.559Z,112.14
2023-01-27T14:44:44.106Z,112.09
2023-01-27T14:45:39.508Z,112.20
2023-01-27T14:46:38.513Z,112.16
2023-01-27T14:47:38.496Z,112.65
2023-01-27T14:48:38.454Z,113.10
2023-01-27T14:49:38.427Z,112.23
2023-01-27T14:50:38.420Z,111.77
2023-01-27T14:51:38.394Z,110.80
2023-01-27T14:52:38.380Z,110.54
2023-01-27T14:53:38.357Z,111.07
2023-01-27T14:54:38.336Z,113.06
2023-01-27T14:55:38.327Z,108.12
2023-01-27T14:56:38.356Z,110.39
2023-01-27T14:57:38.283Z,109.67
2023-01-27T14:58:38.267Z,110.70
2023-01-27T14:59:38.236Z,110.62
2023-01-27T15:00:38.270Z,109.62
2023-01-27T15:01:38.244Z,108.13
2023-01-27T15:02:38.201Z,107.98
2023-01-27T15:03:38.169Z,110.09
2023-01-27T15:04:38.146Z,110.13
2023-01-27T15:05:38.141Z,110.11
2023-01-27T15:06:38.112Z,106.91
2023-01-27T15:07:38.108Z,108.63
2023-01-27T15:08:38.113Z,109.55
2023-01-27T15:09:38.080Z,108.89
2023-01-27T15:10:38.051Z,110.47
2023-01-27T15:11:38.047Z,107.94
2023-01-27T15:12:38.032Z,105.52
2023-01-27T15:13:38.031Z,105.15
2023-01-27T15:14:37.984Z,106.97
2023-01-27T15:15:37.959Z,108.80
2023-01-27T15:16:38.002Z,108.36
2023-01-27T15:17:37.928Z,106.96
2023-01-27T15:18:37.914Z,105.54
2023-01-27T15:19:37.889Z,106.31
2023-01-27T15:20:37.868Z,106.90
2023-01-27T15:21:37.858Z,107.47
2023-01-27T15:22:37.859Z,106.60
2023-01-27T15:23:37.825Z,104.32
2023-01-27T15:24:37.807Z,103.84
2023-01-27T15:25:37.795Z,104.24
2023-01-27T15:26:37.768Z,104.84
2023-01-27T15:27:37.776Z,103.58
2023-01-27T15:28:37.748Z,104.41
2023-01-27T15:29:37.722Z,103.29
2023-01-27T15:30:37.699Z,104.04
2023-01-27T15:31:37.761Z,104.17
2023-01-27T15:32:37.816Z,104.69
2023-01-27T15:33:37.646Z,102.69
2023-01-27T15:34:37.656Z,103.31
2023-01-27T15:35:37.621Z,103.39
2023-01-27T15:36:37.601Z,102.76
2023-01-27T15:37:37.583Z,103.38
2023-01-27T15:38:37.563Z,104.13
2023-01-27T15:39:42.519Z,103.37
2023-01-27T15:40:38.522Z,103.41
2023-01-27T15:41:37.490Z,103.41
2023-01-27T15:42:37.487Z,103.71
2023-01-27T15:43:37.448Z,102.63
2023-01-27T15:44:37.426Z,103.43
2023-01-27T15:45:37.446Z,103.43
2023-01-27T15:46:37.399Z,101.72
2023-01-27T15:47:37.370Z,102.00
2023-01-27T15:48:37.358Z,104.04
2023-01-27T15:49:37.330Z,102.89
2023-01-27T15:50:37.326Z,101.60
2023-01-27T15:51:37.309Z,100.47
2023-01-27T15:52:37.294Z,99.57
2023-01-27T15:53:37.265Z,102.73
2023-01-27T15:54:37.272Z,101.98
2023-01-27T15:55:37.242Z,100.40
2023-01-27T15:56:37.233Z,98.76
2023-01-27T15:57:37.209Z,100.63
2023-01-27T15:58:37.200Z,100.18
2023-01-27T15:59:38.958Z,102.23
2023-01-27T16:00:37.189Z,101.11
2023-01-27T16:01:37.170Z,99.25
2023-01-27T16:02:37.140Z,99.53
2023-01-27T16:03:37.107Z,100.61
2023-01-27T16:04:37.106Z,99.76
2023-01-27T16:05:37.166Z,99.57
2023-01-27T16:06:37.050Z,99.36
2023-01-27T16:07:37.051Z,98.39
2023-01-27T16:08:37.024Z,98.65
2023-01-27T16:09:37.014Z,98.07
2023-01-27T16:10:36.997Z,98.28
2023-01-27T16:11:36.962Z,100.34
2023-01-27T16:12:36.961Z,98.91
2023-01-27T16:13:36.929Z,98.97
2023-01-27T16:14:36.921Z,97.83
2023-01-27T16:15:36.911Z,97.03
2023-01-27T16:16:36.928Z,99.65
2023-01-27T16:48:36.404Z,96.85
2023-01-27T16:49:36.447Z,95.74
2023-01-27T16:50:36.375Z,96.04
2023-01-27T16:51:36.336Z,95.81
2023-01-27T16:52:42.016Z,96.15
2023-01-27T16:53:37.311Z,96.18
2023-01-27T16:54:36.282Z,96.19
2023-01-27T16:55:36.278Z,96.04
2023-01-27T16:56:36.244Z,96.79
2023-01-27T16:57:36.238Z,94.99
2023-01-27T16:58:46.045Z,94.97
2023-01-27T16:59:37.237Z,95.01
2023-01-27T17:00:36.227Z,95.14
2023-01-27T17:01:36.207Z,95.25
2023-01-27T17:02:36.148Z,95.50
2023-01-27T17:03:36.145Z,96.35
2023-01-27T17:04:36.118Z,95.91
2023-01-27T17:05:36.099Z,94.84
2023-01-27T17:06:36.140Z,95.10
2023-01-27T17:07:36.059Z,95.80
2023-01-27T17:08:36.073Z,95.15
2023-01-27T17:09:36.018Z,93.88
2023-01-27T17:10:36.006Z,93.79
2023-01-27T17:11:35.991Z,93.08
2023-01-27T17:12:35.962Z,93.74
2023-01-27T17:13:35.946Z,94.04
2023-01-27T17:14:35.935Z,95.09
2023-01-27T17:15:35.905Z,94.72
2023-01-27T17:16:35.950Z,94.85
2023-01-27T17:17:35.873Z,94.33
2023-01-27T17:18:50.916Z,94.82
2023-01-27T17:19:36.870Z,94.85
2023-01-27T17:20:35.831Z,94.88
2023-01-27T17:21:35.806Z,94.39
2023-01-27T17:22:35.811Z,93.89
2023-01-27T17:23:35.778Z,94.47
2023-01-27T17:24:35.778Z,94.48
2023-01-27T17:25:35.743Z,94.25
2023-01-27T17:26:35.754Z,92.96
2023-01-27T17:27:35.752Z,93.17
2023-01-27T17:28:35.723Z,93.21
2023-01-27T17:29:35.714Z,92.51
2023-01-27T17:30:35.794Z,93.20
2023-01-27T17:31:35.812Z,91.23
2023-01-27T17:32:35.683Z,91.99
2023-01-27T17:33:35.669Z,93.19
2023-01-27T17:34:35.654Z,92.86
2023-01-27T17:35:35.637Z,91.63
2023-01-27T17:36:35.622Z,93.31
2023-01-27T17:37:35.605Z,92.06
2023-01-27T17:38:35.592Z,94.36
2023-01-27T17:39:35.577Z,92.40
2023-01-27T17:40:35.571Z,92.89
2023-01-27T17:41:35.570Z,94.72
2023-01-27T17:42:35.558Z,92.45
2023-01-27T17:43:35.545Z,92.09
2023-01-27T17:44:35.547Z,90.65
2023-01-27T17:45:35.516Z,91.46
2023-01-27T17:46:35.532Z,92.24
2023-01-27T17:47:35.500Z,93.06
2023-01-27T17:48:35.504Z,91.71
2023-01-27T17:49:35.504Z,88.79
2023-01-27T17:50:35.492Z,89.10
2023-01-27T17:51:35.474Z,88.96
2023-01-27T17:52:35.475Z,93.13
2023-01-27T17:53:35.464Z,93.02
2023-01-27T17:54:35.475Z,88.59
2023-01-27T17:55:35.453Z,90.06
2023-01-27T17:56:35.449Z,92.96
2023-01-27T17:57:35.443Z,91.77
2023-01-27T17:58:35.418Z,91.58
2023-01-27T17:59:35.403Z,92.49
2023-01-27T18:00:35.396Z,88.87
2023-01-27T18:01:35.425Z,89.94
2023-01-27T18:02:35.409Z,90.16
2023-01-27T18:03:35.361Z,91.74
2023-01-27T18:04:35.362Z,90.67
2023-01-27T18:05:35.341Z,91.86
2023-01-27T18:06:35.340Z,90.33
2023-01-27T18:07:35.332Z,88.21
2023-01-27T18:08:35.316Z,90.34
2023-01-27T18:09:35.316Z,88.27
2023-01-27T18:10:35.303Z,87.41
2023-01-27T18:11:35.273Z,86.86
2023-01-27T18:12:35.260Z,90.44
2023-01-27T18:13:35.236Z,91.15
2023-01-27T18:14:35.212Z,91.74
2023-01-27T18:15:35.200Z,87.73
2023-01-27T18:16:35.187Z,88.90
2023-01-27T18:17:35.173Z,85.98
2023-01-27T18:18:35.153Z,91.12
2023-01-27T18:19:35.141Z,92.11
2023-01-27T18:20:35.134Z,88.96
2023-01-27T18:21:35.110Z,86.62
2023-01-27T18:22:35.096Z,87.42
2023-01-27T18:23:35.093Z,86.59
2023-01-27T18:24:35.056Z,89.76
2023-01-27T18:25:35.054Z,90.55
2023-01-27T18:26:35.032Z,88.02
2023-01-27T18:27:35.023Z,91.75
2023-01-27T18:28:35.008Z,89.09
2023-01-27T18:29:35.010Z,89.43
2023-01-27T18:30:35.022Z,87.87
2023-01-27T18:31:35.052Z,87.98
2023-01-27T18:32:34.967Z,88.07
2023-01-27T18:33:34.946Z,91.73
2023-01-27T18:34:34.941Z,87.64
2023-01-27T18:35:34.916Z,87.75
2023-01-27T18:36:34.882Z,86.21
2023-01-27T18:37:34.864Z,87.21
2023-01-27T18:38:34.846Z,90.88
2023-01-27T18:39:34.836Z,85.93
2023-01-27T18:40:34.819Z,86.79
2023-01-27T18:41:34.855Z,88.65
2023-01-27T18:42:34.803Z,86.07
2023-01-27T18:43:34.797Z,86.28
2023-01-27T18:44:34.785Z,86.32
2023-01-27T18:45:34.774Z,86.15
2023-01-27T18:46:34.793Z,86.26
2023-01-27T18:47:34.753Z,86.71
2023-01-27T18:48:34.734Z,87.69
2023-01-27T18:49:34.756Z,87.87
2023-01-27T18:50:34.712Z,87.69
2023-01-27T18:51:34.691Z,86.52
2023-01-27T18:52:34.668Z,87.73
2023-01-27T18:53:34.665Z,85.63
2023-01-27T20:43:35.587Z,80.47
2023-01-27T20:44:33.437Z,80.69
2023-01-27T20:45:33.438Z,81.04
2023-01-27T20:46:33.448Z,78.60
2023-01-27T20:47:33.417Z,80.18
2023-01-27T20:48:33.404Z,78.61
2023-01-27T20:49:33.422Z,80.62
2023-01-27T20:50:33.394Z,78.53
2023-01-27T20:51:33.395Z,78.66
2023-01-27T20:52:33.375Z,78.96
2023-01-27T20:53:33.367Z,79.09
2023-01-27T20:54:33.350Z,79.67
2023-01-27T20:55:33.331Z,78.68
2023-01-27T20:56:33.317Z,78.88
2023-01-27T20:57:33.318Z,78.84
2023-01-27T20:58:33.303Z,80.00
2023-01-27T20:59:33.285Z,79.78
2023-01-27T21:00:33.261Z,78.69
2023-01-27T21:01:33.345Z,78.97
2023-01-27T21:02:33.263Z,79.40
2023-01-27T21:03:33.226Z,77.86
2023-01-27T21:04:33.212Z,79.37
2023-01-27T21:05:33.196Z,79.29
2023-01-27T21:06:33.176Z,79.54
2023-01-27T21:07:33.190Z,78.50
2023-01-27T21:08:33.160Z,79.56
2023-01-27T21:09:33.151Z,78.69
2023-01-27T21:10:33.147Z,79.09
2023-01-27T21:11:33.140Z,79.06
2023-01-27T21:12:33.137Z,79.78
2023-01-27T21:13:33.206Z,78.63
2023-01-27T21:14:33.140Z,78.74
2023-01-27T21:15:33.105Z,78.50
2023-01-27T21:16:33.108Z,78.09
2023-01-27T21:17:33.086Z,79.49
2023-01-27T21:18:33.085Z,80.30
2023-01-27T21:19:33.067Z,79.99
2023-01-27T21:20:33.050Z,78.77
2023-01-27T21:21:33.030Z,78.08
2023-01-27T21:22:33.019Z,77.59
2023-01-27T21:23:33.023Z,78.61
2023-01-27T21:24:32.999Z,78.06
2023-01-27T21:25:32.969Z,79.87
2023-01-27T21:26:33.028Z,76.81
2023-01-27T21:27:32.940Z,77.63
2023-01-27T21:28:32.923Z,78.26
2023-01-27T21:29:33.033Z,79.17
2023-01-27T21:30:32.903Z,77.19
2023-01-27T21:31:33.023Z,79.44
2023-01-27T21:32:32.884Z,77.10
2023-01-27T21:33:32.874Z,78.52
2023-01-27T21:34:32.853Z,77.96
2023-01-27T21:35:32.845Z,77.63
2023-01-27T21:36:32.838Z,78.23
2023-01-27T21:37:32.813Z,78.83
2023-01-27T21:38:32.804Z,77.40
2023-01-27T21:39:32.786Z,76.66
2023-01-27T21:40:32.768Z,77.62
2023-01-27T21:41:32.789Z,79.07
2023-01-27T21:42:32.773Z,79.52
2023-01-27T21:43:32.749Z,77.08
2023-01-27T21:44:32.745Z,77.48
2023-01-27T21:45:32.758Z,78.35
2023-01-27T21:46:32.839Z,79.35
2023-01-27T21:47:32.729Z,79.87
2023-01-27T21:48:32.719Z,78.94
2023-01-27T21:49:32.698Z,77.82
2023-01-27T21:50:32.687Z,78.21
2023-01-27T21:51:32.695Z,78.32
2023-01-27T21:52:32.693Z,78.41
2023-01-27T21:53:32.661Z,79.12
2023-01-27T21:54:32.657Z,79.06
2023-01-27T21:55:32.656Z,78.52
2023-01-27T21:56:32.643Z,78.60
2023-01-27T21:57:32.637Z,77.58
2023-01-27T21:58:32.630Z,77.98
2023-01-27T21:59:32.627Z,79.77
2023-01-27T22:00:32.651Z,77.93
2023-01-27T22:01:32.611Z,77.20
2023-01-27T22:02:32.603Z,77.76
2023-01-27T22:03:32.599Z,77.88
2023-01-27T22:04:32.612Z,78.02
2023-01-27T22:05:32.578Z,77.00
2023-01-27T22:06:32.572Z,75.56
2023-01-27T22:07:32.566Z,76.55
2023-01-27T22:08:32.566Z,78.01
2023-01-27T22:09:32.533Z,78.07
2023-01-27T22:10:32.523Z,77.73
2023-01-27T22:11:32.535Z,77.85
2023-01-27T22:12:32.491Z,75.60
2023-01-27T22:13:32.495Z,77.54
2023-01-27T22:14:32.483Z,77.92
2023-01-27T22:15:32.466Z,77.57
2023-01-27T22:16:32.517Z,78.88
2023-01-27T22:17:32.432Z,77.66
2023-01-27T22:18:32.434Z,78.70
2023-01-27T22:19:32.415Z,79.08
2023-01-27T22:20:32.402Z,78.29
2023-01-27T22:21:32.379Z,78.54
2023-01-27T22:22:32.375Z,78.06
2023-01-27T22:23:32.363Z,77.30
2023-01-27T22:24:32.340Z,76.94
2023-01-27T22:25:32.329Z,77.96
2023-01-27T22:26:32.336Z,76.69
2023-01-27T22:27:32.308Z,78.29
2023-01-27T22:28:32.328Z,77.78
2023-01-27T22:29:32.279Z,76.98
2023-01-27T22:30:32.290Z,77.78
2023-01-27T22:31:32.247Z,76.78
2023-01-27T22:32:32.261Z,77.73
2023-01-27T22:33:32.263Z,78.57
2023-01-27T22:34:32.228Z,77.55
2023-01-27T22:35:32.213Z,78.41
2023-01-27T22:36:32.219Z,78.49
2023-01-27T22:37:32.201Z,78.69
2023-01-27T22:38:32.195Z,78.53
2023-01-27T22:39:32.169Z,78.64
2023-01-27T22:40:32.158Z,78.81
2023-01-27T22:41:32.149Z,78.99
2023-01-27T22:42:32.141Z,79.10
2023-01-27T22:43:32.132Z,77.84
2023-01-27T22:44:32.124Z,76.88
2023-01-27T22:45:32.162Z,78.38
2023-01-27T22:46:32.101Z,76.39
2023-01-27T22:47:32.086Z,76.60
2023-01-27T22:48:32.073Z,78.37
2023-01-27T22:49:32.052Z,79.72
2023-01-27T22:50:32.049Z,79.22
2023-01-27T22:51:32.030Z,78.03
2023-01-27T22:52:32.035Z,78.37
2023-01-27T22:53:32.025Z,77.93
2023-01-27T22:54:32.031Z,78.09
2023-01-27T22:55:32.002Z,77.73
2023-01-27T22:56:32.007Z,78.56
2023-01-27T22:57:32.002Z,78.12
2023-01-27T22:58:32.000Z,77.82
2023-01-27T22:59:31.995Z,78.17
2023-01-27T23:00:31.972Z,77.89
2023-01-27T23:01:32.028Z,79.03
2023-01-27T23:02:31.993Z,79.19
2023-01-27T23:03:31.988Z,78.25
2023-01-27T23:04:31.944Z,78.58
2023-01-27T23:05:31.923Z,77.02
2023-01-27T23:06:31.919Z,78.97
2023-01-27T23:07:31.909Z,78.55
2023-01-27T23:08:32.741Z,77.69
2023-01-27T23:09:31.876Z,78.24
2023-01-27T23:10:31.864Z,78.23
2023-01-27T23:11:31.860Z,78.11
2023-01-27T23:12:31.855Z,78.70
2023-01-27T23:13:31.856Z,79.04
2023-01-27T23:14:31.845Z,77.40
2023-01-27T23:15:31.829Z,78.18
2023-01-27T23:16:31.942Z,77.83
2023-01-27T23:17:31.821Z,77.93
2023-01-27T23:18:31.814Z,77.99
2023-01-27T23:19:31.805Z,78.35
2023-01-27T23:20:31.805Z,78.48
2023-01-27T23:21:31.774Z,77.92
2023-01-27T23:22:31.761Z,78.25
2023-01-27T23:23:31.749Z,78.38
2023-01-27T23:24:31.859Z,78.70
2023-01-27T23:25:31.737Z,79.81
2023-01-27T23:26:31.725Z,78.41
2023-01-27T23:27:31.711Z,79.12
2023-01-27T23:28:31.714Z,79.09
2023-01-27T23:29:31.714Z,79.59
2023-01-27T23:30:31.703Z,79.01
2023-01-27T23:31:31.770Z,77.89
2023-01-27T23:32:31.651Z,78.03
2023-01-27T23:33:31.635Z,79.12
2023-01-27T23:34:31.627Z,77.90
2023-01-27T23:35:31.609Z,78.55
2023-01-27T23:36:31.616Z,78.51
2023-01-27T23:37:31.620Z,77.43
2023-01-27T23:38:33.078Z,77.85
2023-01-27T23:39:31.578Z,78.91
2023-01-27T23:40:31.564Z,78.47
2023-01-27T23:41:31.547Z,76.99
2023-01-27T23:42:31.533Z,78.13
2023-01-27T23:43:31.536Z,78.75
2023-01-27T23:44:31.528Z,78.06
2023-01-27T23:45:31.491Z,77.58
2023-01-27T23:46:31.551Z,78.51
2023-01-27T23:47:31.476Z,78.86
2023-01-27T23:48:31.477Z,76.95
2023-01-27T23:49:31.482Z,78.10
2023-01-27T23:50:31.443Z,77.45
2023-01-27T23:51:31.428Z,77.97
2023-01-27T23:52:31.410Z,78.65
2023-01-27T23:53:31.421Z,77.26
2023-01-27T23:54:31.400Z,77.67
2023-01-27T23:55:31.370Z,77.40
2023-01-27T23:56:31.364Z,77.74
2023-01-27T23:57:31.341Z,77.70
2023-01-27T23:58:31.338Z,78.83
2023-01-27T23:59:31.338Z,77.90
